createdAt,value
2022-10-29T00:01:18.586Z,3.40
2022-10-29T00:03:47.248Z,4.57
2022-10-29T00:06:14.833Z,3.08
2022-10-29T00:08:42.584Z,3.45
2022-10-29T00:11:18.912Z,3.33
2022-10-29T00:13:47.064Z,3.35
2022-10-29T00:16:19.453Z,4.45
2022-10-29T00:18:46.615Z,3.45
2022-10-29T00:21:16.688Z,2.80
2022-10-29T00:23:43.638Z,3.60
2022-10-29T00:26:10.801Z,3.22
2022-10-29T00:28:37.889Z,3.42
2022-10-29T00:31:06.131Z,3.10
2022-10-29T00:33:33.478Z,3.70
2022-10-29T00:36:06.332Z,4.45
2022-10-29T00:38:34.550Z,3.53
2022-10-29T00:41:02.244Z,4.55
2022-10-29T00:43:29.103Z,4.82
2022-10-29T00:48:27.986Z,3.22
2022-10-29T00:50:55.973Z,4.78
2022-10-29T00:53:28.856Z,3.05
2022-10-29T00:55:55.813Z,3.00
2022-10-29T00:58:22.735Z,3.08
2022-10-29T01:00:49.427Z,2.42
2022-10-29T01:03:16.320Z,4.05
2022-10-29T01:05:45.152Z,3.25
2022-10-29T01:08:13.101Z,3.25
2022-10-29T01:11:07.375Z,4.03
2022-10-29T01:13:52.202Z,3.38
2022-10-29T01:16:35.176Z,4.03
2022-10-29T01:19:27.147Z,3.72
2022-10-29T01:22:16.990Z,4.38
2022-10-29T01:25:13.574Z,3.72
2022-10-29T01:27:59.196Z,3.28
2022-10-29T01:31:00.492Z,3.10
2022-10-29T01:33:54.281Z,3.60
2022-10-29T01:36:23.741Z,3.60
2022-10-29T01:39:08.669Z,4.05
2022-10-29T01:41:53.367Z,4.45
2022-10-29T01:44:34.467Z,4.72
2022-10-29T01:47:04.272Z,3.53
2022-10-29T01:49:43.372Z,3.65
2022-10-29T01:52:13.733Z,3.15
2022-10-29T01:54:45.703Z,2.78
2022-10-29T01:57:29.628Z,3.03
2022-10-29T02:00:12.823Z,4.43
2022-10-29T02:02:51.470Z,2.20
2022-10-29T02:05:31.915Z,3.58
2022-10-29T02:08:16.653Z,2.83
2022-10-29T02:11:04.984Z,3.63
2022-10-29T02:13:37.720Z,2.53
2022-10-29T02:16:06.848Z,4.22
2022-10-29T02:18:45.783Z,3.67
2022-10-29T02:21:17.245Z,4.32
2022-10-29T02:23:44.654Z,4.43
2022-10-29T02:26:11.810Z,3.63
2022-10-29T02:28:38.560Z,2.58
2022-10-29T02:31:05.808Z,3.30
2022-10-29T02:33:32.486Z,2.97
2022-10-29T02:35:59.258Z,4.10
2022-10-29T02:40:52.691Z,4.03
2022-10-29T02:45:50.963Z,3.15
2022-10-29T02:50:44.266Z,3.40
2022-10-29T02:53:10.905Z,4.43
2022-10-29T02:55:37.565Z,2.88
2022-10-29T02:58:04.289Z,4.57
2022-10-29T03:02:58.190Z,2.88
2022-10-29T03:05:25.400Z,2.72
2022-10-29T03:10:18.598Z,2.83
2022-10-29T03:12:45.227Z,3.20
2022-10-29T03:15:11.872Z,3.33
2022-10-29T03:17:38.495Z,2.30
2022-10-29T03:20:05.940Z,2.95
2022-10-29T03:22:32.619Z,3.15
2022-10-29T03:24:59.242Z,2.60
2022-10-29T03:27:26.075Z,3.83
2022-10-29T03:29:52.857Z,4.03
2022-10-29T03:32:20.051Z,3.13
2022-10-29T03:34:46.674Z,4.63
2022-10-29T03:37:13.319Z,3.50
2022-10-29T03:42:06.687Z,4.40
2022-10-29T03:44:33.394Z,3.85
2022-10-29T03:49:26.694Z,3.55
2022-10-29T03:51:53.329Z,3.30
2022-10-29T03:54:20.079Z,2.70
2022-10-29T03:59:13.342Z,2.63
2022-10-29T04:01:40.168Z,6.40
2022-10-29T04:04:06.864Z,5.18
2022-10-29T04:06:33.591Z,3.80
2022-10-29T04:11:26.816Z,4.82
2022-10-29T04:13:53.976Z,2.78
2022-10-29T04:16:20.817Z,2.70
2022-10-29T04:29:35.583Z,3.03
2022-10-29T04:32:02.301Z,2.65
2022-10-29T04:36:55.652Z,4.55
2022-10-29T04:41:50.416Z,3.70
2022-10-29T04:46:43.746Z,4.70
2022-10-29T04:49:10.605Z,4.25
2022-10-29T04:51:37.764Z,5.07
2022-10-29T04:54:04.688Z,4.32
2022-10-29T04:56:31.459Z,4.00
2022-10-29T05:01:25.045Z,4.15
2022-10-29T05:03:55.528Z,2.55
2022-10-29T05:06:25.680Z,3.20
2022-10-29T05:08:52.318Z,3.60
2022-10-29T05:13:45.658Z,2.92
2022-10-29T05:16:12.402Z,2.90
2022-10-29T05:21:06.848Z,3.57
2022-10-29T05:23:33.587Z,2.75
2022-10-29T05:26:00.270Z,4.28
2022-10-29T05:28:26.975Z,2.90
2022-10-29T05:30:54.082Z,4.43
2022-10-29T05:33:23.915Z,4.38
2022-10-29T05:35:51.318Z,5.47
2022-10-29T05:38:18.073Z,4.03
2022-10-29T05:40:45.555Z,3.47
2022-10-29T05:43:16.419Z,4.45
2022-10-29T05:45:43.988Z,3.88
2022-10-29T05:50:43.644Z,3.70
2022-10-29T05:53:12.457Z,3.85
2022-10-29T05:55:39.856Z,3.78
2022-10-29T05:58:10.089Z,4.47
2022-10-29T06:00:39.230Z,2.97
2022-10-29T06:03:14.880Z,5.00
2022-10-29T06:05:41.648Z,3.28
2022-10-29T06:08:08.816Z,3.40
2022-10-29T06:10:35.993Z,3.70
2022-10-29T06:13:02.797Z,3.25
2022-10-29T06:17:56.455Z,3.50
2022-10-29T06:20:23.368Z,3.08
2022-10-29T06:22:58.088Z,4.80
2022-10-29T06:25:26.444Z,3.70
2022-10-29T06:28:04.476Z,4.15
2022-10-29T06:30:33.465Z,4.50
2022-10-29T06:33:01.070Z,3.83
2022-10-29T06:35:28.073Z,3.63
2022-10-29T06:37:55.332Z,4.15
2022-10-29T06:40:22.685Z,3.67
2022-10-29T06:42:49.448Z,3.40
2022-10-29T06:47:44.375Z,5.55
2022-10-29T06:50:13.421Z,2.95
2022-10-29T06:52:40.083Z,3.78
2022-10-29T06:55:08.280Z,3.67
2022-10-29T06:57:35.006Z,2.85
2022-10-29T07:02:35.337Z,3.55
2022-10-29T07:05:01.982Z,3.55
2022-10-29T07:07:29.405Z,3.20
2022-10-29T07:09:56.246Z,2.35
2022-10-29T07:12:22.952Z,3.10
2022-10-29T07:14:49.626Z,4.68
2022-10-29T07:17:16.379Z,3.17
2022-10-29T07:22:09.637Z,3.45
2022-10-29T07:24:36.387Z,3.03
2022-10-29T07:29:29.789Z,4.03
2022-10-29T07:31:56.583Z,4.55
2022-10-29T07:36:49.888Z,3.97
2022-10-29T07:39:17.165Z,2.40
2022-10-29T07:41:43.909Z,3.58
2022-10-29T07:46:37.782Z,3.80
2022-10-29T07:51:31.127Z,3.28
2022-10-29T07:53:58.002Z,3.25
2022-10-29T07:56:24.699Z,3.67
2022-10-29T08:01:18.107Z,3.72
2022-10-29T08:03:44.945Z,3.63
2022-10-29T08:06:11.773Z,3.50
2022-10-29T08:08:38.455Z,4.22
2022-10-29T08:13:31.855Z,5.07
2022-10-29T08:15:58.696Z,5.00
2022-10-29T08:18:25.356Z,3.83
2022-10-29T08:23:18.829Z,2.53
2022-10-29T08:25:45.517Z,4.15
2022-10-29T08:28:14.560Z,4.40
2022-10-29T08:30:43.834Z,3.88
2022-10-29T08:33:11.066Z,4.35
2022-10-29T08:35:37.817Z,3.40
2022-10-29T08:38:04.540Z,2.90
2022-10-29T08:40:49.827Z,3.65
2022-10-29T08:43:53.519Z,4.60
2022-10-29T08:46:43.159Z,3.25
2022-10-29T08:49:25.313Z,4.18
2022-10-29T08:52:11.777Z,3.67
2022-10-29T08:54:42.274Z,4.80
2022-10-29T08:57:15.481Z,3.33
2022-10-29T09:00:04.581Z,3.38
2022-10-29T09:02:31.325Z,4.43
2022-10-29T09:04:59.359Z,4.10
2022-10-29T09:07:49.222Z,2.88
2022-10-29T09:10:37.286Z,3.88
2022-10-29T09:13:29.100Z,3.67
2022-10-29T09:16:17.742Z,3.47
2022-10-29T09:18:54.478Z,3.05
2022-10-29T09:21:45.749Z,4.00
2022-10-29T09:24:35.240Z,3.72
2022-10-29T09:27:29.364Z,3.28
2022-10-29T09:30:15.735Z,4.00
2022-10-29T09:33:01.411Z,3.42
2022-10-29T09:35:53.416Z,3.75
2022-10-29T09:38:44.124Z,3.05
2022-10-29T09:41:12.357Z,3.53
2022-10-29T09:44:04.406Z,5.43
2022-10-29T09:46:46.147Z,3.80
2022-10-29T09:49:39.250Z,4.72
2022-10-29T09:52:21.693Z,3.88
2022-10-29T09:54:50.874Z,3.85
2022-10-29T09:57:21.442Z,4.07
2022-10-29T10:00:00.961Z,4.10
2022-10-29T10:02:30.668Z,3.47
2022-10-29T10:05:33.679Z,4.20
2022-10-29T10:08:14.545Z,4.15
2022-10-29T10:10:55.614Z,3.88
2022-10-29T10:13:31.085Z,3.72
2022-10-29T10:16:00.730Z,3.35
2022-10-29T10:18:38.148Z,3.42
2022-10-29T10:21:12.117Z,5.88
2022-10-29T10:23:54.561Z,8.93
2022-10-29T10:26:42.890Z,5.07
2022-10-29T10:29:14.474Z,4.25
2022-10-29T10:31:49.453Z,3.88
2022-10-29T10:34:20.445Z,4.65
2022-10-29T10:37:02.540Z,3.47
2022-10-29T10:39:40.876Z,4.10
2022-10-29T10:42:22.780Z,4.47
2022-10-29T10:44:52.985Z,3.60
2022-10-29T10:47:23.035Z,4.82
2022-10-29T10:49:49.855Z,4.15
2022-10-29T10:52:19.626Z,3.75
2022-10-29T10:55:01.346Z,3.45
2022-10-29T10:57:53.954Z,4.22
2022-10-29T11:00:22.395Z,4.45
2022-10-29T11:03:03.855Z,3.25
2022-10-29T11:05:38.198Z,4.20
2022-10-29T11:08:09.597Z,4.50
2022-10-29T11:10:53.425Z,4.82
2022-10-29T11:13:26.857Z,4.03
2022-10-29T11:16:17.883Z,3.53
2022-10-29T11:19:04.200Z,5.40
2022-10-29T11:21:39.359Z,3.30
2022-10-29T11:24:11.054Z,3.92
2022-10-29T11:26:41.087Z,4.45
2022-10-29T11:29:22.917Z,4.82
2022-10-29T11:32:00.375Z,4.00
2022-10-29T11:34:51.328Z,3.88
2022-10-29T11:37:49.979Z,4.60
2022-10-29T11:40:27.023Z,4.72
2022-10-29T11:42:54.404Z,3.83
2022-10-29T11:45:34.430Z,4.03
2022-10-29T11:48:07.164Z,5.38
2022-10-29T11:51:04.538Z,4.15
2022-10-29T11:53:40.336Z,4.82
2022-10-29T11:56:33.122Z,5.27
2022-10-29T11:59:22.044Z,4.78
2022-10-29T12:02:13.981Z,5.78
2022-10-29T12:05:13.910Z,4.28
2022-10-29T12:08:08.973Z,4.45
2022-10-29T12:10:50.462Z,4.50
2022-10-29T12:13:41.858Z,4.28
2022-10-29T12:16:17.626Z,5.13
2022-10-29T12:19:02.063Z,4.53
2022-10-29T12:22:02.702Z,5.65
2022-10-29T12:24:48.555Z,5.13
2022-10-29T12:27:45.632Z,6.05
2022-10-29T12:30:15.888Z,5.53
2022-10-29T12:33:06.584Z,5.45
2022-10-29T12:35:40.805Z,6.45
2022-10-29T12:38:42.666Z,5.78
2022-10-29T12:41:20.888Z,5.75
2022-10-29T12:43:48.337Z,6.85
2022-10-29T12:46:35.701Z,5.18
2022-10-29T12:49:13.737Z,4.53
2022-10-29T12:51:43.598Z,5.38
2022-10-29T12:54:29.193Z,5.15
2022-10-29T12:57:02.666Z,4.80
2022-10-29T12:59:35.610Z,4.15
2022-10-29T13:02:27.203Z,4.60
2022-10-29T13:05:06.623Z,6.15
2022-10-29T13:07:34.099Z,5.90
2022-10-29T13:10:22.932Z,5.43
2022-10-29T13:13:13.827Z,5.28
2022-10-29T13:15:44.469Z,7.68
2022-10-29T13:18:41.743Z,5.63
2022-10-29T13:21:09.047Z,4.38
2022-10-29T13:23:37.573Z,5.05
2022-10-29T13:26:06.244Z,3.97
2022-10-29T13:28:35.880Z,5.80
2022-10-29T13:31:08.008Z,5.60
2022-10-29T13:33:37.509Z,5.25
2022-10-29T13:36:16.394Z,4.53
2022-10-29T13:38:57.902Z,4.72
2022-10-29T13:41:42.857Z,4.55
2022-10-29T13:44:25.998Z,5.22
2022-10-29T13:47:17.745Z,5.28
2022-10-29T13:49:46.406Z,6.03
2022-10-29T13:52:18.347Z,5.68
2022-10-29T13:55:02.920Z,4.20
2022-10-29T13:57:35.710Z,3.28
2022-10-29T14:00:18.707Z,5.00
2022-10-29T14:02:52.942Z,4.68
2022-10-29T14:05:38.297Z,4.32
2022-10-29T14:08:24.130Z,4.70
2022-10-29T14:10:54.776Z,4.38
2022-10-29T14:13:33.897Z,4.25
2022-10-29T14:16:03.455Z,4.97
2022-10-29T14:18:38.706Z,4.60
2022-10-29T14:21:21.829Z,5.30
2022-10-29T14:24:09.947Z,5.57
2022-10-29T14:26:39.029Z,4.60
2022-10-29T14:29:18.390Z,5.72
2022-10-29T14:31:45.884Z,4.93
2022-10-29T14:34:25.966Z,5.82
2022-10-29T14:36:58.377Z,4.78
2022-10-29T14:39:57.079Z,5.72
2022-10-29T14:42:32.380Z,5.10
2022-10-29T14:45:21.613Z,4.85
2022-10-29T14:48:09.424Z,3.60
2022-10-29T14:50:36.725Z,4.75
2022-10-29T14:53:20.454Z,4.10
2022-10-29T14:55:49.306Z,4.03
2022-10-29T14:58:17.836Z,4.60
2022-10-29T15:00:56.439Z,5.70
2022-10-29T15:03:25.697Z,4.55
2022-10-29T15:06:09.974Z,4.50
2022-10-29T15:08:40.165Z,4.97
2022-10-29T15:11:34.442Z,4.28
2022-10-29T15:14:23.952Z,5.13
2022-10-29T15:16:52.537Z,4.65
2022-10-29T15:19:19.495Z,5.70
2022-10-29T15:21:46.298Z,5.95
2022-10-29T15:24:20.480Z,6.65
2022-10-29T15:26:58.879Z,6.10
2022-10-29T15:29:34.850Z,6.35
2022-10-29T15:32:04.036Z,6.78
2022-10-29T15:34:37.288Z,6.32
2022-10-29T15:37:19.185Z,6.15
2022-10-29T15:40:02.650Z,6.20
2022-10-29T15:42:35.307Z,6.10
2022-10-29T15:45:08.318Z,6.53
2022-10-29T15:47:40.648Z,6.97
2022-10-29T15:50:11.654Z,6.03
2022-10-29T15:52:42.072Z,6.43
2022-10-29T15:55:14.618Z,7.00
2022-10-29T15:57:41.854Z,7.10
2022-10-29T16:00:11.220Z,6.93
2022-10-29T16:02:37.926Z,6.28
2022-10-29T16:05:05.112Z,6.80
2022-10-29T16:07:32.611Z,7.13
2022-10-29T16:09:59.928Z,6.43
2022-10-29T16:12:26.607Z,8.00
2022-10-29T16:14:53.229Z,7.70
2022-10-29T16:19:47.682Z,8.60
2022-10-29T16:24:43.130Z,10.32
2022-10-29T16:27:18.302Z,9.25
2022-10-29T16:29:49.805Z,10.38
2022-10-29T16:32:18.369Z,13.27
2022-10-29T16:34:45.132Z,8.43
2022-10-29T16:37:13.652Z,8.80
2022-10-29T16:39:40.968Z,10.80
2022-10-29T16:42:10.374Z,9.32
2022-10-29T16:44:37.057Z,9.98
2022-10-29T16:49:30.268Z,11.10
2022-10-29T16:54:23.508Z,11.90
2022-10-29T16:59:19.361Z,12.32
2022-10-29T17:01:47.764Z,11.65
2022-10-29T17:04:14.489Z,11.73
2022-10-29T17:06:41.223Z,12.15
2022-10-29T17:11:34.552Z,12.73
2022-10-29T17:14:01.262Z,12.07
2022-10-29T17:18:54.799Z,12.75
2022-10-29T17:21:21.469Z,14.80
2022-10-29T17:23:49.256Z,13.13
2022-10-29T17:28:43.008Z,11.73
2022-10-29T17:31:11.279Z,11.30
2022-10-29T17:33:38.103Z,11.57
2022-10-29T17:38:37.441Z,11.55
2022-10-29T17:43:30.933Z,11.23
2022-10-29T17:45:57.655Z,10.68
2022-10-29T17:48:25.158Z,10.93
2022-10-29T17:50:56.794Z,9.73
2022-10-29T17:53:24.410Z,12.77
2022-10-29T17:55:51.457Z,13.10
2022-10-29T17:58:19.511Z,11.40
2022-10-29T18:00:48.399Z,11.90
2022-10-29T18:03:15.308Z,11.40
2022-10-29T18:08:08.643Z,12.48
2022-10-29T18:10:35.748Z,9.48
2022-10-29T18:13:02.492Z,9.60
2022-10-29T18:17:58.166Z,8.73
2022-10-29T18:20:24.835Z,8.05
2022-10-29T18:22:55.547Z,9.18
2022-10-29T18:25:22.781Z,8.50
2022-10-29T18:30:25.135Z,7.95
2022-10-29T18:32:52.010Z,10.25
2022-10-29T18:35:18.765Z,8.88
2022-10-29T18:40:13.030Z,9.27
2022-10-29T18:42:39.750Z,10.40
2022-10-29T18:47:33.282Z,10.85
2022-10-29T18:49:59.964Z,11.35
2022-10-29T18:52:26.597Z,9.45
2022-10-29T18:57:19.955Z,10.57
2022-10-29T18:59:46.590Z,8.43
2022-10-29T19:02:13.394Z,8.38
2022-10-29T19:04:40.226Z,10.20
2022-10-29T19:07:06.853Z,7.25
2022-10-29T19:09:33.823Z,8.60
2022-10-29T19:12:00.456Z,9.38
2022-10-29T19:16:53.765Z,8.63
2022-10-29T19:19:22.934Z,9.52
2022-10-29T19:21:50.889Z,8.02
2022-10-29T19:24:17.664Z,9.43
2022-10-29T19:26:44.417Z,8.57
2022-10-29T19:31:38.537Z,6.72
2022-10-29T19:34:07.004Z,8.32
2022-10-29T19:36:35.800Z,7.32
2022-10-29T19:39:03.890Z,7.03
2022-10-29T19:41:31.132Z,6.32
2022-10-29T19:44:02.009Z,6.15
2022-10-29T19:46:28.816Z,8.18
2022-10-29T19:51:23.307Z,6.93
2022-10-29T19:53:53.487Z,8.98
2022-10-29T19:56:21.321Z,6.60
2022-10-29T19:58:48.159Z,8.48
2022-10-29T20:03:46.832Z,9.05
2022-10-29T20:06:14.439Z,9.93
2022-10-29T20:08:41.210Z,13.52
2022-10-29T20:11:08.160Z,12.23
2022-10-29T20:13:35.218Z,13.43
2022-10-29T20:16:12.079Z,13.73
2022-10-29T20:18:38.859Z,14.85
2022-10-29T20:23:37.953Z,11.88
2022-10-29T20:26:05.403Z,11.20
2022-10-29T20:28:32.159Z,10.70
2022-10-29T20:33:41.008Z,11.60
2022-10-29T20:38:35.012Z,8.27
2022-10-29T20:41:01.685Z,7.13
2022-10-29T20:43:28.461Z,8.32
2022-10-29T20:48:25.504Z,8.23
2022-10-29T20:50:52.572Z,10.63
2022-10-29T20:53:19.298Z,10.82
2022-10-29T20:55:50.578Z,8.43
2022-10-29T20:58:21.237Z,7.47
2022-10-29T21:00:48.675Z,6.30
2022-10-29T21:03:16.947Z,6.30
2022-10-29T21:05:44.696Z,7.18
2022-10-29T21:08:11.433Z,7.70
2022-10-29T21:10:38.134Z,9.93
2022-10-29T21:15:35.697Z,11.27
2022-10-29T21:18:02.433Z,9.23
2022-10-29T21:22:55.966Z,8.05
2022-10-29T21:25:22.765Z,7.00
2022-10-29T21:27:53.880Z,6.57
2022-10-29T21:30:20.768Z,5.68
2022-10-29T21:32:47.389Z,5.82
2022-10-29T21:35:14.185Z,6.72
2022-10-29T21:40:08.282Z,6.30
2022-10-29T21:42:34.969Z,7.35
2022-10-29T21:45:01.633Z,7.43
2022-10-29T21:49:55.017Z,7.13
2022-10-29T21:54:48.267Z,6.63
2022-10-29T21:57:14.907Z,6.07
2022-10-29T21:59:41.568Z,5.35
2022-10-29T22:02:08.281Z,6.57
2022-10-29T22:04:35.091Z,7.30
2022-10-29T22:07:03.372Z,6.82
2022-10-29T22:09:30.029Z,6.38
2022-10-29T22:11:56.721Z,6.85
2022-10-29T22:14:23.340Z,8.07
2022-10-29T22:16:50.123Z,7.07
2022-10-29T22:19:16.797Z,6.75
2022-10-29T22:24:11.782Z,6.07
2022-10-29T22:26:38.640Z,7.13
2022-10-29T22:29:05.297Z,5.90
2022-10-29T22:31:31.997Z,6.28
2022-10-29T22:33:58.705Z,5.97
2022-10-29T22:38:56.619Z,5.38
2022-10-29T22:41:25.650Z,5.63
2022-10-29T22:43:52.356Z,4.55
2022-10-29T22:48:46.576Z,5.30
2022-10-29T22:51:19.243Z,4.82
2022-10-29T22:53:47.363Z,3.92
2022-10-29T22:56:22.063Z,4.32
2022-10-29T22:58:49.066Z,4.10
2022-10-29T23:01:21.892Z,5.47
2022-10-29T23:03:49.393Z,4.28
2022-10-29T23:06:18.504Z,4.70
2022-10-29T23:08:45.842Z,3.70
2022-10-29T23:11:21.347Z,4.72
2022-10-29T23:13:49.606Z,4.30
2022-10-29T23:16:16.400Z,5.28
2022-10-29T23:21:10.182Z,3.97
2022-10-29T23:23:36.826Z,3.83
2022-10-29T23:26:04.178Z,5.15
2022-10-29T23:28:35.398Z,4.15
2022-10-29T23:31:04.466Z,4.43
2022-10-29T23:33:32.362Z,4.63
2022-10-29T23:36:03.196Z,4.38
2022-10-29T23:38:30.861Z,4.20
2022-10-29T23:40:57.621Z,3.90
2022-10-29T23:45:50.900Z,3.83
2022-10-29T23:48:18.233Z,3.70
2022-10-29T23:50:45.492Z,3.88
2022-10-29T23:53:12.680Z,4.25
2022-10-29T23:55:39.503Z,4.28
